createdAt,value
2022-08-31T00:05:20.310Z,81.90
2022-08-31T00:13:26.366Z,82.70
2022-08-31T00:21:34.575Z,83.40
2022-08-31T00:29:39.979Z,83.70
2022-08-31T00:37:48.009Z,83.70
2022-08-31T00:45:53.433Z,83.00
2022-08-31T00:54:02.404Z,83.20
2022-08-31T01:02:07.963Z,84.20
2022-08-31T01:10:16.802Z,86.80
2022-08-31T01:18:22.919Z,86.20
2022-08-31T01:26:33.864Z,86.70
2022-08-31T01:34:39.279Z,86.90
2022-08-31T01:42:47.344Z,86.70
2022-08-31T01:50:53.762Z,86.80
2022-08-31T01:59:07.621Z,87.40
2022-08-31T02:07:32.226Z,87.90
2022-08-31T02:15:41.544Z,88.50
2022-08-31T02:23:47.106Z,89.00
2022-08-31T02:31:55.163Z,89.20
2022-08-31T02:40:00.653Z,89.60
2022-08-31T02:48:11.102Z,89.20
2022-08-31T02:56:18.248Z,89.60
2022-08-31T03:04:26.334Z,89.40
2022-08-31T03:12:31.893Z,89.00
2022-08-31T03:20:40.200Z,88.60
2022-08-31T03:28:45.634Z,88.10
2022-08-31T03:37:16.872Z,87.30
2022-08-31T03:45:22.784Z,86.90
2022-08-31T03:53:31.330Z,87.30
2022-08-31T04:01:39.836Z,86.90
2022-08-31T04:10:26.444Z,86.60
2022-08-31T04:18:54.906Z,86.10
2022-08-31T04:27:03.455Z,86.00
2022-08-31T04:35:10.290Z,86.40
2022-08-31T04:43:19.526Z,86.30
2022-08-31T04:51:31.366Z,86.30
2022-08-31T04:59:39.652Z,86.30
2022-08-31T05:08:05.388Z,86.50
2022-08-31T05:16:16.400Z,85.70
2022-08-31T05:24:23.742Z,86.40
2022-08-31T05:32:34.145Z,86.40
2022-08-31T05:40:41.167Z,87.20
2022-08-31T05:48:50.132Z,86.00
2022-08-31T05:56:59.864Z,85.70
2022-08-31T06:05:11.069Z,85.00
2022-08-31T06:13:17.316Z,85.40
2022-08-31T06:21:29.221Z,84.80
2022-08-31T06:29:35.469Z,82.80
2022-08-31T06:37:43.681Z,80.60
2022-08-31T06:46:12.120Z,76.40
2022-08-31T06:54:34.622Z,76.50
2022-08-31T07:03:23.209Z,76.10
2022-08-31T07:11:35.294Z,77.40
2022-08-31T07:19:44.860Z,77.70
2022-08-31T07:27:55.679Z,75.90
2022-08-31T07:36:01.748Z,72.80
2022-08-31T07:44:29.253Z,72.20
2022-08-31T07:52:37.550Z,70.80
2022-08-31T08:00:57.355Z,72.10
2022-08-31T08:09:23.953Z,71.80
2022-08-31T08:17:38.379Z,73.40
2022-08-31T08:25:49.093Z,73.20
2022-08-31T08:34:01.357Z,73.40
2022-08-31T08:42:11.380Z,76.20
2022-08-31T08:50:19.764Z,75.90
2022-08-31T08:58:26.186Z,73.30
2022-08-31T09:06:46.446Z,72.80
2022-08-31T09:15:11.412Z,71.80
2022-08-31T09:23:21.971Z,69.40
2022-08-31T09:31:37.901Z,67.50
2022-08-31T09:39:50.992Z,65.60
2022-08-31T09:48:00.710Z,63.50
2022-08-31T09:56:20.088Z,60.20
2022-08-31T10:04:28.888Z,60.90
2022-08-31T10:12:45.654Z,60.10
2022-08-31T10:20:57.147Z,62.60
2022-08-31T10:29:09.215Z,61.90
2022-08-31T10:37:20.283Z,60.30
2022-08-31T10:45:31.094Z,58.80
2022-08-31T10:53:52.413Z,60.20
2022-08-31T11:02:15.391Z,60.80
2022-08-31T11:10:30.547Z,59.00
2022-08-31T11:19:14.505Z,55.60
2022-08-31T11:27:26.034Z,49.40
2022-08-31T11:36:07.229Z,49.40
2022-08-31T11:44:37.152Z,54.50
2022-08-31T11:52:48.681Z,57.90
2022-08-31T12:00:58.619Z,58.60
2022-08-31T12:09:23.568Z,59.70
2022-08-31T12:17:34.708Z,60.50
2022-08-31T12:26:02.265Z,57.00
2022-08-31T12:34:09.995Z,47.20
2022-08-31T12:42:19.281Z,43.50
2022-08-31T12:50:32.633Z,38.60
2022-08-31T12:58:56.014Z,36.30
2022-08-31T13:07:16.449Z,36.70
2022-08-31T13:15:30.483Z,41.80
2022-08-31T13:23:38.670Z,45.40
2022-08-31T13:31:54.561Z,47.70
2022-08-31T13:40:01.797Z,50.90
2022-08-31T13:48:16.651Z,53.90
2022-08-31T13:56:54.293Z,57.20
2022-08-31T14:05:05.217Z,58.50
2022-08-31T14:13:21.409Z,59.20
2022-08-31T14:21:35.234Z,60.80
2022-08-31T14:29:44.951Z,62.20
2022-08-31T14:37:54.233Z,63.20
2022-08-31T14:46:02.653Z,65.20
2022-08-31T14:54:11.531Z,65.20
2022-08-31T15:02:21.723Z,66.30
2022-08-31T15:10:30.677Z,66.80
2022-08-31T15:18:37.663Z,67.80
2022-08-31T15:26:45.810Z,70.00
2022-08-31T15:34:53.649Z,70.40
2022-08-31T15:43:02.569Z,71.40
2022-08-31T15:51:08.051Z,71.80
2022-08-31T15:59:16.141Z,70.90
2022-08-31T16:07:22.779Z,70.20
2022-08-31T16:15:33.108Z,70.20
2022-08-31T16:23:39.825Z,71.40
2022-08-31T16:31:49.066Z,71.40
2022-08-31T16:39:55.005Z,71.50
2022-08-31T16:48:15.275Z,72.60
2022-08-31T16:56:22.964Z,74.40
2022-08-31T17:04:52.589Z,74.20
2022-08-31T17:12:58.630Z,75.70
2022-08-31T17:21:06.762Z,76.70
2022-08-31T17:29:14.682Z,79.50
2022-08-31T17:37:27.002Z,82.20
2022-08-31T17:45:34.682Z,81.10
2022-08-31T17:53:42.780Z,81.20
2022-08-31T18:01:52.103Z,80.80
2022-08-31T18:10:00.255Z,80.60
2022-08-31T18:18:05.711Z,79.80
2022-08-31T18:26:25.709Z,78.60
2022-08-31T18:34:31.129Z,78.20
2022-08-31T18:42:52.116Z,78.20
2022-08-31T18:50:59.240Z,78.20
2022-08-31T18:59:10.297Z,77.90
2022-08-31T19:07:16.979Z,78.50
2022-08-31T19:15:35.337Z,78.70
2022-08-31T19:23:41.685Z,79.40
2022-08-31T19:31:51.384Z,79.70
2022-08-31T19:39:56.878Z,79.60
2022-08-31T19:48:05.203Z,80.50
2022-08-31T19:56:11.379Z,81.20
2022-08-31T20:04:19.892Z,82.10
2022-08-31T20:12:29.840Z,82.20
2022-08-31T20:20:43.458Z,82.50
2022-08-31T20:28:48.818Z,82.80
2022-08-31T20:37:01.299Z,83.00
2022-08-31T20:45:06.964Z,83.40
2022-08-31T20:53:17.481Z,83.80
2022-08-31T21:01:31.501Z,84.00
2022-08-31T21:09:39.587Z,84.30
2022-08-31T21:17:45.847Z,85.70
2022-08-31T21:25:55.590Z,86.30
2022-08-31T21:34:03.864Z,86.90
2022-08-31T21:42:11.914Z,87.60
2022-08-31T21:50:17.387Z,88.00
2022-08-31T21:58:25.334Z,87.40
2022-08-31T22:06:33.179Z,87.60
2022-08-31T22:14:44.794Z,88.00
2022-08-31T22:22:50.208Z,88.00
2022-08-31T22:31:00.868Z,87.50
2022-08-31T22:39:08.753Z,87.10
2022-08-31T22:47:16.909Z,87.20
2022-08-31T22:55:22.413Z,87.20
2022-08-31T23:03:30.879Z,87.50
2022-08-31T23:11:36.564Z,87.60
2022-08-31T23:19:46.884Z,87.30
2022-08-31T23:27:53.530Z,87.50
2022-08-31T23:36:01.552Z,87.20
2022-08-31T23:44:09.482Z,87.70
2022-08-31T23:52:21.279Z,89.60
